Terminal Aerodrome Forecast
Issued by NWS

Home | Current Version | Previous Version | Text Only | Print | Product List | Glossary On
Versions: 1 2 3 4 5 6 7 8 9 10 11 12 13 14 15 16 17 18
000
FTUS43 KILX 291120
TAFDEC
TAF
KDEC 291120Z 2912/3012 20014G29KT P6SM SCT100 BKN200
     FM291400 22014G21KT P6SM SCT060 BKN150
     FM292300 23006KT P6SM VCTS SCT050CB BKN090
     FM300400 19004KT P6SM SHRA BKN090
     FM300900 21008KT P6SM SHRA OVC045=

USA.gov is the U.S. government's official web portal to all federal, state and local government web resources and services.